This is the latest recevied weather packets stored in our database for station/object IW3HBX-13. If no packets are shown the sender has not sent any weather packets the latest 10 day(s).
| Time | Temp. | Humidity | Pressure | Rain* | Wind** | Luminosity | Snow |
|---|---|---|---|---|---|---|---|
| 1778058729 | 17.78° C | 80% | 1011.6 hPa | 0 mm | - | 157 W/m² | - |
| 1778058367 | 17.78° C | 80% | 1011.7 hPa | 0 mm | - | 161 W/m² | - |
| 1778057647 | 18.33° C | 78% | 1011.4 hPa | 0 mm | - | 235 W/m² | - |
| 1778057288 | 17.78° C | 79% | 1011.3 hPa | 0 mm | - | 262 W/m² | - |
| 1778056928 | 17.78° C | 82% | 1011.4 hPa | 0 mm | - | 229 W/m² | - |
| 1778056567 | 17.78° C | 82% | 1011.3 hPa | 0 mm | - | 241 W/m² | - |
| 1778055847 | 17.22° C | 84% | 1011.4 hPa | 0 mm | - | 267 W/m² | - |
| 1778055487 | 17.22° C | 87% | 1011.3 hPa | 0 mm | - | 279 W/m² | - |
| 1778055127 | 17.22° C | 89% | 1011.2 hPa | 0 mm | - | 409 W/m² | - |
| 1778054767 | 16.67° C | 90% | 1011.2 hPa | 0 mm | - | 290 W/m² | - |
| 1778054050 | 16.67° C | 91% | 1011.4 hPa | 0 mm | - | 207 W/m² | - |
| 1778053690 | 16.11° C | 91% | 1011.5 hPa | 0 mm | - | 169 W/m² | - |
| 1778053329 | 16.11° C | 91% | 1011.5 hPa | 0 mm | - | 187 W/m² | - |
| 1778052967 | 15.56° C | 93% | 1011.5 hPa | 0 mm | - | 219 W/m² | - |
| 1778052247 | 15.56° C | 93% | 1011.5 hPa | 0 mm | - | 220 W/m² | - |
| 1778051887 | 15° C | 93% | 1011.5 hPa | 0 mm | - | 253 W/m² | - |
| 1778051527 | 15° C | 93% | 1011.5 hPa | 0 mm | - | 174 W/m² | - |
| 1778051168 | 15° C | 94% | 1011.6 hPa | 0 mm | - | 113 W/m² | - |
| 1778050447 | 15° C | 94% | 1011.6 hPa | 0 mm | - | 69 W/m² | - |
| 1778050089 | 14.44° C | 94% | 1011.5 hPa | 0 mm | - | 68 W/m² | - |
| 1778049727 | 15° C | 94% | 1011.5 hPa | 0.51 mm | - | 150 W/m² | - |
| 1778049368 | 14.44° C | 94% | 1011.6 hPa | 0.51 mm | - | 47 W/m² | - |
| 1778048647 | 14.44° C | 94% | 1011.4 hPa | 0.51 mm | - | 46 W/m² | - |
| 1778048290 | 14.44° C | 94% | 1011.3 hPa | 0.51 mm | - | 48 W/m² | - |
| 1778047927 | 14.44° C | 95% | 1011.4 hPa | 0.51 mm | - | 48 W/m² | - |
* Rain latest hour (hover to see other rain measurements)
** Current wind speed in m/s (hover to see current wind gust speed)